메인 페이지
METAR-TAF:

METAR-TAF

공항 :

댈러스 / 포트워스, 텍사스, 미국

댈러스 포트워스 국제공항

위도: 32-53-49N, 경도: 097-01-19W, 고도: 183m

현재 날씨관측

예보는 53분 전, 09:53시(UTC)에 발표되었습니다.
남서4kt
온도 19°C
습도 68%
기압 1017 hPa
시정: 16.1km
고도 7000ft 상공 구름 많음
고도 11000ft 상공 구름 많음
고도 25000ft 상공 흐림

METAR: KDFW 250953Z 23004KT 10SM BKN070 BKN110 OVC250 19/13 A3004 RMK AO2 SLP165 T01940133

시각: 05:46 (10:46 UTC)

예보

예보는 1 시간 35분 전, 09:11시(UTC)에 발표되었습니다.
예보 대상 시간: 25일 09시부터 26일 12시까지 (UTC)
4kt
시정: 10km
고도 10000ft 상공 구름 많음
25일 1300시부터 (UTC)
북북서12kt
시정: 10km
고도 2200ft 상공 구름 보통
고도 3500ft 상공 구름 많음
25일 1500시부터 (UTC)
15kt, 순간 최대 풍속 25kt
시정: 10km
고도 2200ft 상공 구름 많음
25일 1800시부터 (UTC)
북북서15kt, 순간 최대 풍속 25kt
시정: 10km
고도 2200ft 상공 구름 많음
시계 내 소나기
25일 2000시부터 (UTC)
북북서16kt
시정: 10km
고도 1800ft 상공 구름 많음, 적란운.
시계 내 뇌우
25일 2300시부터 (UTC)
북북서13kt
시정: 10km
고도 3000ft 상공 구름 보통

TAF: KDFW 250911Z 2509/2612 01004KT P6SM BKN100 FM251300 34012KT P6SM SCT022 BKN035 FM251500 35015G25KT P6SM BKN022 FM251800 34015G25KT P6SM VCSH BKN022 FM252000 34016KT P6SM VCTS BKN018CB FM252300 34013KT P6SM SCT030

4,000개 이상의 공항 관측 자료 및 예보 (METAR 및 TAF 보고).

지도상에서 검색 가능한 기상관측소가 노란 점과 빨간 점으로 표시되어 있습니다.

기상관측소 명을 보려면 표시 위로 마우스를 이동하세요.

날씨 관측과 예보를 보려면 클릭하세요.

지도 변경 : 확대하려면 엑스 표시가 있는 녹색 버튼, 축소하려면 빼기 표시가 있는 녹색 버튼, 다음 페이지의 지도를 보려면 녹색 화살표를 클릭하세요.


METAR-TAF: